Pickton, Texas
Current Conditions -  °F | °C
As of 11:35 PM on Wednesday 22 Oct 2014 (Local Time) from KSLR Reporting Station
Clear Clear  
Wind Chill: 17°   Ceiling: Unl
Heat Index: 17°   Visibility: 10mi
Dew Point: 12°   Wind: 10mph
Humidity: 70%   Direction: 120°ESE
Pressure: 30.15"   Gusts: NA
Location:  33.03°N, 95.39°W
Report Text: KSLR 230435Z AUTO 12009KT 10SM CLR 17/12 A3015 RMK AO2 T01710115
Loading
Personal Weather Stations






























Interactive Weather Map
Tropical Storm Tracking
New forecast layout! Learn more

10-Day Weather Forecast

Advertisements
Track Severe Weather on mobile